createdAt,value
2019-01-30T00:00:52.319Z,14.47
2019-01-30T00:03:23.677Z,19.50
2019-01-30T00:05:54.620Z,20.67
2019-01-30T00:08:25.658Z,28.13
2019-01-30T00:10:56.604Z,20.70
2019-01-30T00:13:27.506Z,21.40
2019-01-30T00:15:58.487Z,18.10
2019-01-30T00:18:29.824Z,16.63
2019-01-30T00:21:00.831Z,19.50
2019-01-30T00:23:32.113Z,20.50
2019-01-30T00:26:03.020Z,19.10
2019-01-30T00:28:34.114Z,21.40
2019-01-30T00:31:05.220Z,27.87
2019-01-30T00:33:36.188Z,30.17
2019-01-30T00:36:07.198Z,23.17
2019-01-30T00:38:38.171Z,19.37
2019-01-30T00:41:09.239Z,22.87
2019-01-30T00:43:40.226Z,20.70
2019-01-30T00:46:11.194Z,26.70
2019-01-30T00:48:42.179Z,19.67
2019-01-30T00:51:13.152Z,16.93
2019-01-30T00:53:44.103Z,19.63
2019-01-30T00:56:14.995Z,15.00
2019-01-30T00:58:45.895Z,18.73
2019-01-30T01:01:16.824Z,22.97
2019-01-30T01:03:47.759Z,25.50
2019-01-30T01:06:18.732Z,22.63
2019-01-30T01:08:49.661Z,16.83
2019-01-30T01:11:20.607Z,19.10
2019-01-30T01:13:51.615Z,25.37
2019-01-30T01:16:22.575Z,18.60
2019-01-30T01:18:53.678Z,17.90
2019-01-30T01:21:24.954Z,24.60
2019-01-30T01:23:56.481Z,21.87
2019-01-30T01:26:27.441Z,20.43
2019-01-30T01:28:58.336Z,21.57
2019-01-30T01:31:29.252Z,20.40
2019-01-30T01:34:00.464Z,22.33
2019-01-30T01:36:31.435Z,20.70
2019-01-30T01:39:02.350Z,23.60
2019-01-30T01:41:33.326Z,26.53
2019-01-30T01:44:04.382Z,21.53
2019-01-30T01:46:35.597Z,19.97
2019-01-30T01:49:06.699Z,21.97
2019-01-30T01:51:37.619Z,18.37
2019-01-30T01:54:08.552Z,21.20
2019-01-30T01:56:39.766Z,21.60
2019-01-30T01:59:10.650Z,19.93
2019-01-30T02:01:41.640Z,25.60
2019-01-30T02:04:12.545Z,23.53
2019-01-30T02:06:43.484Z,22.20
2019-01-30T02:09:14.560Z,22.00
2019-01-30T02:11:45.498Z,23.23
2019-01-30T02:14:16.454Z,30.60
2019-01-30T02:16:47.677Z,32.83
2019-01-30T02:19:19.165Z,17.97
2019-01-30T02:21:50.082Z,17.27
2019-01-30T02:24:21.072Z,21.53
2019-01-30T02:26:52.021Z,20.97
2019-01-30T02:29:23.214Z,18.90
2019-01-30T02:31:54.140Z,23.00
2019-01-30T02:34:25.152Z,19.67
2019-01-30T02:36:59.725Z,17.20
2019-01-30T02:39:30.688Z,21.80
2019-01-30T02:42:01.621Z,23.87
2019-01-30T02:44:32.629Z,23.07
2019-01-30T02:47:03.560Z,24.53
2019-01-30T02:49:34.761Z,22.20
2019-01-30T02:52:06.110Z,24.50
2019-01-30T02:54:37.122Z,23.93
2019-01-30T02:57:08.014Z,26.87
2019-01-30T02:59:38.965Z,23.93
2019-01-30T03:02:20.421Z,26.73
2019-01-30T03:04:51.411Z,24.53
2019-01-30T03:07:22.317Z,27.70
2019-01-30T03:09:53.239Z,23.33
2019-01-30T03:12:24.155Z,19.23
2019-01-30T03:14:55.055Z,20.97
2019-01-30T03:17:26.346Z,19.70
2019-01-30T03:19:57.240Z,29.67
2019-01-30T03:22:28.421Z,18.33
2019-01-30T03:24:59.656Z,22.50
2019-01-30T03:27:30.656Z,21.50
2019-01-30T03:30:01.615Z,18.43
2019-01-30T03:32:32.821Z,20.27
2019-01-30T03:35:03.750Z,20.53
2019-01-30T03:37:34.675Z,16.80
2019-01-30T03:40:06.847Z,16.13
2019-01-30T03:42:37.832Z,21.07
2019-01-30T03:45:09.553Z,18.47
2019-01-30T03:47:40.433Z,16.90
2019-01-30T03:50:12.494Z,20.73
2019-01-30T03:52:43.389Z,17.30
2019-01-30T03:55:15.990Z,14.23
2019-01-30T03:57:46.897Z,18.83
2019-01-30T04:00:23.873Z,20.23
2019-01-30T04:02:55.605Z,13.17
2019-01-30T04:05:26.739Z,15.60
2019-01-30T04:07:58.068Z,19.73
2019-01-30T04:10:28.947Z,15.70
2019-01-30T04:12:59.891Z,19.50
2019-01-30T04:15:30.791Z,15.20
2019-01-30T04:18:01.756Z,16.90
2019-01-30T04:20:32.737Z,16.60
2019-01-30T04:23:03.651Z,16.20
2019-01-30T04:25:34.947Z,18.00
2019-01-30T04:28:05.973Z,16.60
2019-01-30T04:30:36.872Z,17.37
2019-01-30T04:33:07.900Z,15.00
2019-01-30T04:35:38.863Z,23.73
2019-01-30T04:38:10.049Z,22.60
2019-01-30T04:40:40.963Z,16.13
2019-01-30T04:43:11.865Z,22.47
2019-01-30T04:45:42.804Z,20.60
2019-01-30T04:48:13.707Z,34.27
2019-01-30T04:50:44.727Z,17.73
2019-01-30T04:53:15.918Z,18.67
2019-01-30T04:55:46.830Z,19.37
2019-01-30T04:58:17.754Z,22.03
2019-01-30T05:00:48.671Z,22.33
2019-01-30T05:03:19.633Z,22.83
2019-01-30T05:05:50.950Z,17.80
2019-01-30T05:08:21.930Z,21.10
2019-01-30T05:10:52.973Z,19.07
2019-01-30T05:13:23.864Z,23.20
2019-01-30T05:15:54.826Z,23.53
2019-01-30T05:18:26.168Z,20.37
2019-01-30T05:20:57.155Z,23.03
2019-01-30T05:23:28.179Z,27.60
2019-01-30T05:26:00.061Z,24.60
2019-01-30T05:28:31.139Z,28.40
2019-01-30T05:31:02.048Z,29.67
2019-01-30T05:33:32.940Z,28.17
2019-01-30T05:36:03.861Z,31.10
2019-01-30T05:38:34.794Z,31.73
2019-01-30T05:41:05.835Z,30.70
2019-01-30T05:43:36.754Z,32.07
2019-01-30T05:46:07.731Z,34.40
2019-01-30T05:48:38.720Z,31.40
2019-01-30T05:51:09.711Z,35.13
2019-01-30T05:53:40.709Z,32.50
2019-01-30T05:56:11.608Z,33.87
2019-01-30T05:58:42.576Z,40.00
2019-01-30T06:01:13.600Z,35.73
2019-01-30T06:03:44.722Z,38.03
2019-01-30T06:06:15.994Z,28.63
2019-01-30T06:08:47.187Z,33.57
2019-01-30T06:11:18.457Z,31.70
2019-01-30T06:13:49.419Z,32.03
2019-01-30T06:16:20.327Z,40.50
2019-01-30T06:18:51.580Z,28.80
2019-01-30T06:21:22.571Z,31.40
2019-01-30T06:23:53.471Z,32.97
2019-01-30T06:26:24.519Z,33.43
2019-01-30T06:28:55.402Z,33.13
2019-01-30T06:31:28.675Z,29.50
2019-01-30T06:33:59.657Z,33.00
2019-01-30T06:36:30.574Z,32.30
2019-01-30T06:39:01.551Z,38.50
2019-01-30T06:41:32.775Z,40.00
2019-01-30T06:44:04.144Z,35.53
2019-01-30T06:46:35.063Z,28.63
2019-01-30T06:49:05.976Z,29.63
2019-01-30T06:51:37.300Z,33.27
2019-01-30T06:54:08.290Z,30.47
2019-01-30T06:56:39.253Z,29.00
2019-01-30T06:59:10.162Z,29.93
2019-01-30T07:01:41.263Z,28.67
2019-01-30T07:04:12.252Z,37.43
2019-01-30T07:06:43.166Z,29.13
2019-01-30T07:09:14.170Z,30.50
2019-01-30T07:11:45.139Z,29.93
2019-01-30T07:14:16.125Z,30.60
2019-01-30T07:16:47.047Z,32.57
2019-01-30T07:19:18.063Z,29.33
2019-01-30T07:21:49.039Z,26.63
2019-01-30T07:24:19.932Z,29.70
2019-01-30T07:26:50.987Z,29.73
2019-01-30T07:29:22.174Z,25.80
2019-01-30T07:31:53.074Z,27.40
2019-01-30T07:34:24.357Z,26.90
2019-01-30T07:36:55.316Z,34.67
2019-01-30T07:39:26.792Z,32.47
2019-01-30T07:41:57.725Z,24.73
2019-01-30T07:44:28.631Z,30.07
2019-01-30T07:46:59.665Z,32.23
2019-01-30T07:49:31.169Z,26.60
2019-01-30T07:52:02.095Z,32.80
2019-01-30T07:54:33.044Z,28.43
2019-01-30T07:57:03.947Z,24.00
2019-01-30T07:59:34.909Z,27.17
2019-01-30T08:02:06.150Z,26.97
2019-01-30T08:04:37.823Z,29.60
2019-01-30T08:07:08.824Z,33.70
2019-01-30T08:09:39.712Z,29.03
2019-01-30T08:12:12.580Z,32.40
2019-01-30T08:14:43.333Z,26.23
2019-01-30T08:17:14.394Z,23.63
2019-01-30T08:19:45.390Z,28.80
2019-01-30T08:22:16.327Z,21.80
2019-01-30T08:24:47.604Z,24.27
2019-01-30T08:27:18.929Z,24.10
2019-01-30T08:29:49.969Z,20.23
2019-01-30T08:32:22.360Z,30.13
2019-01-30T08:34:53.404Z,22.87
2019-01-30T08:37:24.403Z,28.00
2019-01-30T08:39:55.403Z,26.20
2019-01-30T08:42:26.324Z,26.27
2019-01-30T08:44:57.314Z,21.53
2019-01-30T08:47:28.517Z,23.17
2019-01-30T08:49:59.711Z,23.93
2019-01-30T08:52:30.937Z,28.83
2019-01-30T08:55:01.961Z,26.40
2019-01-30T08:57:33.332Z,24.67
2019-01-30T09:00:04.332Z,22.33
2019-01-30T09:02:35.405Z,19.93
2019-01-30T09:05:07.897Z,20.83
2019-01-30T09:07:44.305Z,20.37
2019-01-30T09:10:18.298Z,23.70
2019-01-30T09:12:49.516Z,23.87
2019-01-30T09:15:22.856Z,21.00
2019-01-30T09:17:53.955Z,24.97
2019-01-30T09:20:25.991Z,22.90
2019-01-30T09:22:57.063Z,25.67
2019-01-30T09:25:30.291Z,19.80
2019-01-30T09:28:02.453Z,22.00
2019-01-30T09:30:39.072Z,22.50
2019-01-30T09:33:12.160Z,21.20
2019-01-30T09:35:43.069Z,23.00
2019-01-30T09:38:14.102Z,18.57
2019-01-30T09:40:45.337Z,18.23
2019-01-30T09:43:16.218Z,18.50
2019-01-30T09:45:47.148Z,19.20
2019-01-30T09:48:18.090Z,20.27
2019-01-30T09:50:49.026Z,22.03
2019-01-30T09:53:19.973Z,21.40
2019-01-30T09:55:50.926Z,20.33
2019-01-30T09:58:23.931Z,23.93
2019-01-30T10:00:54.775Z,17.20
2019-01-30T10:03:35.805Z,17.23
2019-01-30T10:05:58.355Z,18.20
2019-01-30T10:08:29.285Z,16.00
2019-01-30T10:11:00.198Z,18.57
2019-01-30T10:13:31.453Z,12.13
2019-01-30T10:16:02.420Z,16.50
2019-01-30T10:18:33.394Z,15.80
2019-01-30T10:21:04.832Z,14.40
2019-01-30T10:23:35.843Z,18.30
2019-01-30T10:26:06.965Z,14.90
2019-01-30T10:28:37.897Z,11.50
2019-01-30T10:31:08.797Z,13.03
2019-01-30T10:33:46.336Z,10.87
2019-01-30T10:36:13.023Z,12.27
2019-01-30T10:38:44.225Z,13.97
2019-01-30T10:41:15.270Z,10.07
2019-01-30T10:43:46.172Z,11.73
2019-01-30T10:46:17.107Z,12.87
2019-01-30T10:48:48.043Z,14.77
2019-01-30T10:51:18.948Z,13.10
2019-01-30T10:53:49.923Z,10.50
2019-01-30T10:56:20.929Z,14.00
2019-01-30T10:58:51.895Z,13.30
2019-01-30T11:01:22.878Z,15.47
2019-01-30T11:03:57.537Z,10.63
2019-01-30T11:06:26.508Z,14.87
2019-01-30T11:08:57.458Z,13.73
2019-01-30T11:11:28.343Z,18.40
2019-01-30T11:13:59.366Z,13.83
2019-01-30T11:16:30.316Z,15.40
2019-01-30T11:19:01.632Z,15.50
2019-01-30T11:21:32.545Z,15.53
2019-01-30T11:24:03.516Z,20.83
2019-01-30T11:26:36.428Z,12.57
2019-01-30T11:29:07.275Z,12.23
2019-01-30T11:31:38.255Z,17.23
2019-01-30T11:34:09.743Z,11.50
2019-01-30T11:36:40.922Z,13.73
2019-01-30T11:39:12.127Z,18.67
2019-01-30T11:41:43.051Z,14.73
2019-01-30T11:44:14.356Z,12.83
2019-01-30T11:46:45.243Z,18.90
2019-01-30T11:49:16.522Z,13.53
2019-01-30T11:51:47.736Z,15.53
2019-01-30T11:54:18.623Z,15.67
2019-01-30T11:56:50.449Z,13.93
2019-01-30T11:59:21.396Z,12.83
2019-01-30T12:01:52.309Z,13.80
2019-01-30T12:04:23.242Z,12.20
2019-01-30T12:06:54.500Z,14.23
2019-01-30T12:09:25.479Z,11.50
2019-01-30T12:11:56.438Z,13.90
2019-01-30T12:14:27.501Z,15.50
2019-01-30T12:16:58.687Z,9.67
2019-01-30T12:19:29.871Z,10.77
2019-01-30T12:22:01.170Z,13.40
2019-01-30T12:24:32.061Z,17.30
2019-01-30T12:27:03.007Z,12.30
2019-01-30T12:29:34.568Z,13.07
2019-01-30T12:32:05.730Z,13.33
2019-01-30T12:34:37.536Z,11.70
2019-01-30T12:37:09.188Z,14.30
2019-01-30T12:39:40.096Z,10.07
2019-01-30T12:42:11.001Z,11.00
2019-01-30T12:44:42.324Z,15.77
2019-01-30T12:47:19.666Z,12.70
2019-01-30T12:49:45.993Z,12.37
2019-01-30T12:52:17.068Z,11.97
2019-01-30T12:54:48.062Z,14.50
2019-01-30T12:57:18.996Z,14.63
2019-01-30T12:59:49.984Z,17.53
2019-01-30T13:02:21.295Z,14.93
2019-01-30T13:04:52.191Z,12.93
2019-01-30T13:07:23.665Z,12.30
2019-01-30T13:09:54.872Z,17.50
2019-01-30T13:12:26.254Z,14.50
2019-01-30T13:14:57.231Z,15.63
2019-01-30T13:17:28.645Z,13.10
2019-01-30T13:19:59.616Z,12.17
2019-01-30T13:22:30.552Z,16.60
2019-01-30T13:25:01.863Z,15.13
2019-01-30T13:27:32.768Z,15.40
2019-01-30T13:30:04.014Z,14.53
2019-01-30T13:32:35.317Z,20.87
2019-01-30T13:35:07.374Z,15.50
2019-01-30T13:37:38.354Z,12.53
2019-01-30T13:40:16.106Z,14.60
2019-01-30T13:42:47.389Z,12.20
2019-01-30T13:45:18.476Z,13.57
2019-01-30T13:47:49.787Z,13.50
2019-01-30T13:50:25.595Z,10.70
2019-01-30T13:52:56.622Z,13.20
2019-01-30T13:55:28.422Z,15.30
2019-01-30T13:57:59.405Z,14.40
2019-01-30T14:00:36.279Z,14.90
2019-01-30T14:03:08.509Z,12.10
2019-01-30T14:05:39.424Z,13.40
2019-01-30T14:08:12.781Z,13.20
2019-01-30T14:10:43.784Z,13.00
2019-01-30T14:13:14.702Z,16.10
2019-01-30T14:15:45.628Z,18.37
2019-01-30T14:18:17.144Z,14.10
2019-01-30T14:20:48.126Z,13.40
2019-01-30T14:23:19.147Z,16.97
2019-01-30T14:25:50.192Z,15.77
2019-01-30T14:28:21.195Z,12.60
2019-01-30T14:30:52.202Z,17.57
2019-01-30T14:33:23.162Z,20.63
2019-01-30T14:35:54.240Z,15.60
2019-01-30T14:38:25.598Z,19.17
2019-01-30T14:40:56.830Z,20.03
2019-01-30T14:43:27.788Z,15.80
2019-01-30T14:45:59.038Z,17.40
2019-01-30T14:48:30.126Z,14.00
2019-01-30T14:51:01.101Z,14.83
2019-01-30T14:53:32.327Z,23.53
2019-01-30T14:56:03.491Z,13.27
2019-01-30T14:58:34.988Z,12.57
2019-01-30T15:01:06.495Z,13.80
2019-01-30T15:03:37.441Z,13.80
2019-01-30T15:06:08.449Z,16.03
2019-01-30T15:08:40.057Z,9.23
2019-01-30T15:11:11.038Z,19.30
2019-01-30T15:13:42.045Z,21.93
2019-01-30T15:16:13.150Z,18.93
2019-01-30T15:18:44.181Z,16.27
2019-01-30T15:21:15.189Z,16.50
2019-01-30T15:23:46.169Z,13.43
2019-01-30T15:26:17.084Z,16.83
2019-01-30T15:28:48.335Z,14.23
2019-01-30T15:31:19.537Z,14.93
2019-01-30T15:33:50.509Z,14.17
2019-01-30T15:36:21.487Z,16.20
2019-01-30T15:38:52.410Z,16.23
2019-01-30T15:41:23.368Z,13.97
2019-01-30T15:43:54.267Z,16.97
2019-01-30T15:46:25.255Z,13.80
2019-01-30T15:48:56.200Z,14.90
2019-01-30T15:51:27.407Z,15.80
2019-01-30T15:53:58.365Z,15.10
2019-01-30T15:56:29.326Z,15.40
2019-01-30T15:59:00.342Z,12.73
2019-01-30T16:01:39.673Z,14.93
2019-01-30T16:04:10.689Z,27.63
2019-01-30T16:06:41.751Z,21.40
2019-01-30T16:09:15.007Z,16.87
2019-01-30T16:11:45.897Z,18.93
2019-01-30T16:14:18.264Z,16.20
2019-01-30T16:16:49.334Z,14.87
2019-01-30T16:19:20.277Z,15.47
2019-01-30T16:21:51.279Z,16.03
2019-01-30T16:24:22.497Z,15.40
2019-01-30T16:26:53.734Z,22.80
2019-01-30T16:29:24.691Z,19.30
2019-01-30T16:31:55.987Z,21.40
2019-01-30T16:34:27.321Z,16.87
2019-01-30T16:36:58.313Z,15.80
2019-01-30T16:39:29.284Z,15.50
2019-01-30T16:42:00.249Z,22.43
2019-01-30T16:44:31.239Z,17.53
2019-01-30T16:47:02.584Z,17.67
2019-01-30T16:49:33.484Z,18.97
2019-01-30T16:52:04.544Z,17.60
2019-01-30T16:54:35.849Z,18.50
2019-01-30T16:57:06.887Z,15.50
2019-01-30T16:59:38.002Z,18.27
2019-01-30T17:02:08.955Z,18.70
2019-01-30T17:04:39.903Z,18.20
2019-01-30T17:07:10.980Z,15.23
2019-01-30T17:09:41.942Z,20.33
2019-01-30T17:12:12.948Z,13.70
2019-01-30T17:14:45.489Z,19.50
2019-01-30T17:17:16.745Z,14.43
2019-01-30T17:19:47.801Z,13.80
2019-01-30T17:22:18.809Z,15.40
2019-01-30T17:24:49.820Z,17.93
2019-01-30T17:27:21.641Z,18.93
2019-01-30T17:29:52.648Z,16.73
2019-01-30T17:32:23.578Z,24.67
2019-01-30T17:34:54.785Z,17.30
2019-01-30T17:37:25.885Z,14.50
2019-01-30T17:39:56.878Z,19.60
2019-01-30T17:42:28.132Z,19.00
2019-01-30T17:44:59.054Z,20.57
2019-01-30T17:47:30.076Z,21.27
2019-01-30T17:50:01.047Z,19.90
2019-01-30T17:52:32.052Z,23.00
2019-01-30T17:55:04.455Z,22.67
2019-01-30T17:57:35.554Z,18.00
2019-01-30T18:00:16.848Z,14.43
2019-01-30T18:02:47.874Z,17.50
2019-01-30T18:05:19.160Z,16.10
2019-01-30T18:07:50.199Z,19.23
2019-01-30T18:10:21.339Z,19.80
2019-01-30T18:12:52.434Z,18.20
2019-01-30T18:15:23.433Z,16.00
2019-01-30T18:17:54.563Z,21.30
2019-01-30T18:20:25.768Z,14.07
2019-01-30T18:22:56.700Z,18.10
2019-01-30T18:25:27.665Z,18.53
2019-01-30T18:27:58.625Z,17.90
2019-01-30T18:30:29.664Z,19.13
2019-01-30T18:33:00.717Z,15.90
2019-01-30T18:35:31.971Z,17.20
2019-01-30T18:38:03.112Z,16.60
2019-01-30T18:40:34.542Z,19.27
2019-01-30T18:43:06.192Z,18.87
2019-01-30T18:45:37.211Z,21.70
2019-01-30T18:48:08.269Z,16.57
2019-01-30T18:50:39.724Z,20.23
2019-01-30T18:53:10.950Z,20.40
2019-01-30T18:55:41.871Z,19.43
2019-01-30T18:58:12.887Z,18.27
2019-01-30T19:00:45.344Z,26.07
2019-01-30T19:03:19.022Z,18.80
2019-01-30T19:05:50.557Z,19.33
2019-01-30T19:08:21.969Z,14.10
2019-01-30T19:10:52.894Z,20.07
2019-01-30T19:13:23.846Z,22.43
2019-01-30T19:15:55.944Z,20.63
2019-01-30T19:18:27.963Z,18.90
2019-01-30T19:20:59.022Z,19.73
2019-01-30T19:23:30.390Z,24.10
2019-01-30T19:26:02.543Z,17.03
2019-01-30T19:28:33.513Z,20.23
2019-01-30T19:31:04.551Z,21.33
2019-01-30T19:33:35.872Z,21.13
2019-01-30T19:36:09.211Z,21.93
2019-01-30T19:38:40.538Z,22.53
2019-01-30T19:41:11.529Z,19.53
2019-01-30T19:43:42.773Z,24.00
2019-01-30T19:46:13.728Z,17.83
2019-01-30T19:48:44.657Z,22.63
2019-01-30T19:51:17.799Z,17.60
2019-01-30T19:53:48.758Z,19.23
2019-01-30T19:56:20.000Z,18.40
2019-01-30T19:58:50.998Z,21.33
2019-01-30T20:01:23.875Z,23.30
2019-01-30T20:03:55.144Z,20.07
2019-01-30T20:06:26.366Z,20.80
2019-01-30T20:08:57.660Z,21.53
2019-01-30T20:11:28.964Z,21.20
2019-01-30T20:14:05.039Z,18.97
2019-01-30T20:16:36.037Z,21.77
2019-01-30T20:19:07.355Z,23.27
2019-01-30T20:21:38.671Z,26.33
2019-01-30T20:24:09.651Z,22.00
2019-01-30T20:26:41.228Z,18.10
2019-01-30T20:29:12.461Z,23.83
2019-01-30T20:31:45.461Z,21.07
2019-01-30T20:34:16.432Z,20.40
2019-01-30T20:36:47.711Z,25.53
2019-01-30T20:39:18.667Z,20.33
2019-01-30T20:41:51.638Z,22.90
2019-01-30T20:44:22.642Z,27.03
2019-01-30T20:46:53.935Z,27.17
2019-01-30T20:49:28.425Z,22.50
2019-01-30T20:52:00.637Z,23.37
2019-01-30T20:54:32.881Z,25.57
2019-01-30T20:57:03.880Z,21.10
2019-01-30T20:59:35.241Z,20.07
2019-01-30T21:02:06.485Z,23.47
2019-01-30T21:04:37.715Z,25.00
2019-01-30T21:07:08.697Z,27.10
2019-01-30T21:09:39.816Z,28.90
2019-01-30T21:12:10.795Z,26.87
2019-01-30T21:14:41.756Z,26.60
2019-01-30T21:17:12.774Z,24.67
2019-01-30T21:19:43.897Z,26.97
2019-01-30T21:22:16.777Z,21.53
2019-01-30T21:24:47.739Z,29.43
2019-01-30T21:27:18.777Z,28.27
2019-01-30T21:29:51.128Z,28.30
2019-01-30T21:32:22.193Z,26.77
2019-01-30T21:34:53.413Z,31.57
2019-01-30T21:37:24.418Z,29.17
2019-01-30T21:39:56.194Z,27.70
2019-01-30T21:42:27.533Z,31.83
2019-01-30T21:44:58.520Z,28.50
2019-01-30T21:47:29.509Z,27.03
2019-01-30T21:50:00.497Z,25.33
2019-01-30T21:52:31.817Z,30.13
2019-01-30T21:55:04.615Z,28.53
2019-01-30T21:57:35.621Z,28.57
2019-01-30T22:00:10.758Z,31.17
2019-01-30T22:02:41.687Z,27.50
2019-01-30T22:05:12.614Z,27.73
2019-01-30T22:07:43.539Z,27.87
2019-01-30T22:10:24.393Z,29.30
2019-01-30T22:12:55.457Z,30.83
2019-01-30T22:15:26.796Z,29.87
2019-01-30T22:17:57.808Z,32.33
2019-01-30T22:20:29.205Z,32.73
2019-01-30T22:23:00.545Z,31.80
2019-01-30T22:25:31.478Z,30.07
2019-01-30T22:28:02.420Z,29.43
2019-01-30T22:30:35.947Z,27.43
2019-01-30T22:33:07.736Z,27.73
2019-01-30T22:35:38.843Z,31.83
2019-01-30T22:38:12.646Z,21.80
2019-01-30T22:40:42.465Z,30.03
2019-01-30T22:43:13.404Z,22.40
2019-01-30T22:45:44.363Z,26.37
2019-01-30T22:48:15.561Z,24.33
2019-01-30T22:50:46.552Z,22.13
2019-01-30T22:53:17.520Z,20.63
2019-01-30T22:55:48.444Z,17.70
2019-01-30T22:58:19.534Z,19.00
2019-01-30T23:01:13.251Z,18.40
2019-01-30T23:04:38.775Z,20.93
2019-01-30T23:07:56.742Z,22.33
2019-01-30T23:11:42.652Z,21.53
2019-01-30T23:14:24.935Z,22.33
2019-01-30T23:17:35.337Z,21.03
2019-01-30T23:20:28.410Z,18.80
2019-01-30T23:23:16.276Z,20.40
2019-01-30T23:26:27.988Z,19.10
2019-01-30T23:30:10.833Z,20.73
2019-01-30T23:33:44.254Z,20.50
2019-01-30T23:37:39.229Z,22.93
2019-01-30T23:40:50.283Z,16.73
2019-01-30T23:44:00.497Z,19.57
2019-01-30T23:47:20.897Z,24.97
2019-01-30T23:50:23.688Z,18.77
2019-01-30T23:54:12.525Z,25.07
2019-01-30T23:57:52.792Z,19.37
